createdAt,value
2019-04-28T00:15:57.461Z,99.99
2019-04-28T00:16:57.431Z,99.99
2019-04-28T00:17:57.415Z,99.99
2019-04-28T00:18:57.387Z,99.99
2019-04-28T00:19:57.364Z,99.99
2019-04-28T00:20:57.341Z,99.99
2019-04-28T00:21:57.320Z,99.99
2019-04-28T00:22:57.300Z,99.99
2019-04-28T00:23:57.271Z,99.99
2019-04-28T00:24:57.251Z,99.99
2019-04-28T00:25:57.228Z,99.99
2019-04-28T00:26:57.205Z,99.99
2019-04-28T00:27:57.190Z,99.99
2019-04-28T00:28:57.164Z,99.99
2019-04-28T00:30:55.775Z,99.99
2019-04-28T00:31:55.751Z,99.99
2019-04-28T00:32:55.730Z,99.99
2019-04-28T00:33:55.710Z,99.99
2019-04-28T00:34:55.682Z,99.99
2019-04-28T00:35:55.759Z,99.99
2019-04-28T00:36:55.638Z,99.99
2019-04-28T00:38:28.823Z,99.99
2019-04-28T00:39:28.851Z,99.99
2019-04-28T00:39:55.571Z,99.99
2019-04-28T00:40:55.548Z,99.99
2019-04-28T00:41:55.522Z,99.99
2019-04-28T00:42:55.499Z,99.99
2019-04-28T00:43:55.479Z,99.99
2019-04-28T00:44:55.485Z,99.99
2019-04-28T00:45:55.439Z,99.99
2019-04-28T00:46:55.408Z,99.99
2019-04-28T00:52:41.856Z,99.99
2019-04-28T00:53:41.222Z,99.99
2019-04-28T00:54:42.041Z,99.99
2019-04-28T00:55:43.795Z,99.99
2019-04-28T00:57:25.321Z,99.99
2019-04-28T00:58:25.294Z,99.99
2019-04-28T01:00:31.031Z,99.99
2019-04-28T01:02:13.414Z,99.99
2019-04-28T01:03:46.597Z,99.99
2019-04-28T01:04:46.980Z,99.99
2019-04-28T01:05:13.342Z,99.99
2019-04-28T01:06:14.041Z,99.99
2019-04-28T01:08:58.548Z,99.99
2019-04-28T01:10:31.732Z,99.99
2019-04-28T01:12:46.523Z,99.99
2019-04-28T01:14:16.772Z,99.99
2019-04-28T01:16:30.176Z,99.99
2019-04-28T01:18:01.867Z,99.99
2019-04-28T01:20:13.777Z,99.99
2019-04-28T01:21:46.961Z,99.99
2019-04-28T01:23:59.834Z,99.99
2019-04-28T01:25:32.010Z,99.99
2019-04-28T01:27:43.971Z,99.99
2019-04-28T01:29:17.156Z,99.99
2019-04-28T03:03:04.087Z,99.99
2019-04-28T03:03:30.997Z,99.99
2019-04-28T03:04:31.038Z,99.99
2019-04-28T03:06:04.020Z,99.99
2019-04-28T03:06:30.885Z,99.99
2019-04-28T03:07:31.443Z,99.99
2019-04-28T03:08:30.835Z,99.99
2019-04-28T03:09:30.878Z,99.99
2019-04-28T03:10:31.330Z,99.99
2019-04-28T03:11:31.456Z,99.99
2019-04-28T03:12:31.331Z,99.99
2019-04-28T03:13:31.371Z,99.99
2019-04-28T03:14:30.761Z,99.99
2019-04-28T03:15:30.794Z,99.99
2019-04-28T03:16:30.629Z,99.99
2019-04-28T03:17:31.147Z,99.99
2019-04-28T03:18:31.594Z,99.99
2019-04-28T03:19:33.660Z,99.99
2019-04-28T03:20:30.816Z,99.99
2019-04-28T03:21:31.278Z,99.99
2019-04-28T03:22:32.961Z,99.99
2019-04-28T03:23:31.209Z,99.99
2019-04-28T03:24:31.552Z,99.99
2019-04-28T03:25:33.345Z,99.99
2019-04-28T03:26:30.969Z,99.99
2019-04-28T03:27:31.047Z,99.99
2019-04-28T03:28:30.823Z,99.99
2019-04-28T03:29:30.554Z,99.99
2019-04-28T03:30:33.806Z,99.99
2019-04-28T03:32:04.029Z,99.99
2019-04-28T03:32:44.637Z,99.99
2019-04-28T03:33:34.025Z,99.99
2019-04-28T03:34:32.214Z,99.99
2019-04-28T03:35:32.670Z,99.99
2019-04-28T03:36:33.221Z,99.99
2019-04-28T03:37:31.597Z,99.99
2019-04-28T03:38:30.983Z,99.99
2019-04-28T03:39:30.322Z,99.99
2019-04-28T03:40:31.002Z,99.99
2019-04-28T03:41:31.080Z,99.99
2019-04-28T03:42:31.407Z,99.99
2019-04-28T03:43:30.629Z,99.99
2019-04-28T03:44:30.934Z,99.99
2019-04-28T03:45:30.685Z,99.99
2019-04-28T03:46:30.559Z,99.99
2019-04-28T03:47:31.133Z,99.99
2019-04-28T03:48:30.844Z,99.99
2019-04-28T03:49:30.740Z,99.99
2019-04-28T03:50:31.362Z,99.99
2019-04-28T03:51:30.861Z,99.99
2019-04-28T03:52:31.855Z,99.99
2019-04-28T03:53:31.200Z,99.99
2019-04-28T03:54:30.366Z,99.99
2019-04-28T03:55:31.711Z,99.99
2019-04-28T03:56:31.025Z,99.99
2019-04-28T03:57:31.397Z,99.99
2019-04-28T03:58:31.035Z,99.99
2019-04-28T03:59:31.138Z,99.99
2019-04-28T04:00:31.210Z,99.99
2019-04-28T04:01:30.490Z,99.99
2019-04-28T04:02:31.134Z,99.99
2019-04-28T04:03:30.488Z,99.99
2019-04-28T04:04:31.996Z,99.99
2019-04-28T04:05:30.644Z,99.99
2019-04-28T04:06:31.083Z,99.99
2019-04-28T04:07:31.197Z,99.99
2019-04-28T04:08:31.012Z,99.99
2019-04-28T04:09:31.200Z,99.99
2019-04-28T04:10:30.615Z,99.99
2019-04-28T04:11:31.177Z,99.99
2019-04-28T04:12:30.967Z,99.99
2019-04-28T04:13:32.730Z,99.99
2019-04-28T04:14:31.045Z,99.99
2019-04-28T04:15:30.903Z,99.99
2019-04-28T04:16:30.795Z,99.99
2019-04-28T04:17:30.508Z,99.99
2019-04-28T04:18:30.848Z,99.99
2019-04-28T04:19:30.407Z,99.99
2019-04-28T04:20:31.035Z,99.99
2019-04-28T04:21:31.042Z,99.99
2019-04-28T04:22:31.451Z,99.99
2019-04-28T04:23:30.891Z,99.99
2019-04-28T04:24:30.627Z,99.99
2019-04-28T04:25:31.130Z,99.99
2019-04-28T04:26:32.851Z,99.99
2019-04-28T04:27:30.918Z,99.99
2019-04-28T04:28:30.415Z,99.99
2019-04-28T04:29:30.956Z,99.99
2019-04-28T04:30:31.120Z,99.99
2019-04-28T04:31:31.476Z,99.99
2019-04-28T04:32:30.425Z,99.99
2019-04-28T04:33:31.064Z,99.99
2019-04-28T04:34:30.209Z,99.99
2019-04-28T04:35:31.398Z,99.99
2019-04-28T04:36:31.060Z,99.99
2019-04-28T04:37:30.790Z,99.99
2019-04-28T04:38:30.969Z,99.99
2019-04-28T04:39:30.325Z,99.99
2019-04-28T04:40:31.326Z,99.99
2019-04-28T04:41:30.557Z,99.99
2019-04-28T04:42:30.694Z,99.99
2019-04-28T04:43:30.864Z,99.99
2019-04-28T04:44:30.873Z,99.99
2019-04-28T04:45:30.498Z,99.99
2019-04-28T04:46:31.136Z,99.99
2019-04-28T04:47:32.451Z,99.99
2019-04-28T04:48:31.048Z,99.99
2019-04-28T04:49:31.467Z,99.99
2019-04-28T04:50:31.056Z,99.99
2019-04-28T04:51:30.410Z,99.99
2019-04-28T04:52:30.393Z,99.99
2019-04-28T04:53:30.690Z,99.99
2019-04-28T04:54:32.062Z,99.99
2019-04-28T04:55:30.663Z,99.99
2019-04-28T04:56:30.165Z,99.99
2019-04-28T04:57:32.230Z,99.99
2019-04-28T04:58:30.371Z,99.99
2019-04-28T04:59:30.182Z,99.99
2019-04-28T05:00:28.179Z,99.99
2019-04-28T05:01:30.303Z,99.99
2019-04-28T05:02:30.573Z,99.99
2019-04-28T05:03:29.510Z,99.99
2019-04-28T05:04:29.706Z,99.99
2019-04-28T05:05:28.070Z,99.99
2019-04-28T05:06:29.700Z,99.99
2019-04-28T05:07:29.672Z,99.99
2019-04-28T05:08:27.994Z,99.99
2019-04-28T05:09:29.339Z,99.99
2019-04-28T05:10:27.946Z,99.99
2019-04-28T05:11:29.871Z,99.99
2019-04-28T05:12:27.902Z,99.99
2019-04-28T05:13:27.879Z,99.99
2019-04-28T05:14:29.802Z,99.99
2019-04-28T05:15:27.836Z,99.99
2019-04-28T05:16:29.672Z,99.99
2019-04-28T05:17:27.798Z,99.99
2019-04-28T05:18:29.610Z,99.99
2019-04-28T05:19:27.741Z,99.99
2019-04-28T05:20:27.719Z,99.99
2019-04-28T05:21:31.153Z,99.99
2019-04-28T05:22:27.674Z,99.99
2019-04-28T05:23:27.650Z,99.99
2019-04-28T05:24:27.635Z,99.99
2019-04-28T05:25:30.915Z,99.99
2019-04-28T05:26:27.583Z,99.99
2019-04-28T05:27:27.559Z,99.99
2019-04-28T05:28:30.575Z,99.99
2019-04-28T05:29:28.212Z,99.99
2019-04-28T05:30:27.498Z,99.99
2019-04-28T05:31:27.470Z,99.99
2019-04-28T05:32:41.630Z,99.99
2019-04-28T05:33:30.648Z,99.99
2019-04-28T05:34:29.522Z,99.99
2019-04-28T05:35:29.322Z,99.99
2019-04-28T05:36:27.384Z,99.99
2019-04-28T05:37:27.341Z,99.99
2019-04-28T05:38:27.315Z,99.99
2019-04-28T05:39:27.292Z,99.99
2019-04-28T05:40:27.268Z,99.99
2019-04-28T05:41:27.304Z,99.99
2019-04-28T05:42:27.220Z,99.99
2019-04-28T05:43:27.198Z,99.99
2019-04-28T05:44:27.176Z,99.99
2019-04-28T05:45:27.289Z,99.99
2019-04-28T05:46:27.134Z,99.99
2019-04-28T05:47:27.116Z,99.99
2019-04-28T05:48:27.090Z,99.99
2019-04-28T05:49:27.068Z,99.99
2019-04-28T05:50:27.042Z,99.99
2019-04-28T05:51:27.019Z,99.99
2019-04-28T05:52:27.009Z,99.99
2019-04-28T05:53:26.980Z,99.99
2019-04-28T05:54:26.952Z,99.99
2019-04-28T05:56:10.548Z,99.99
2019-04-28T06:01:20.686Z,99.99
2019-04-28T06:02:21.880Z,99.99
2019-04-28T06:03:20.596Z,99.99
2019-04-28T06:04:23.186Z,99.99
2019-04-28T06:05:20.544Z,99.99
2019-04-28T06:06:20.534Z,99.99
2019-04-28T06:10:39.796Z,99.99
2019-04-28T06:15:49.685Z,99.99
2019-04-28T06:16:48.051Z,99.99
2019-04-28T06:17:49.780Z,99.99
2019-04-28T06:18:49.967Z,99.99
2019-04-28T06:19:50.251Z,99.99
2019-04-28T06:20:49.678Z,99.99
2019-04-28T06:21:47.940Z,99.99
2019-04-28T06:22:47.914Z,99.99
2019-04-28T06:23:47.895Z,99.99
2019-04-28T06:24:47.884Z,99.99
2019-04-28T06:25:47.908Z,99.99
2019-04-28T06:26:47.831Z,99.99
2019-04-28T06:27:47.810Z,99.99
2019-04-28T06:28:47.789Z,99.99
2019-04-28T06:29:47.771Z,99.99
2019-04-28T06:30:47.756Z,99.99
2019-04-28T06:31:47.729Z,99.99
2019-04-28T06:32:47.707Z,99.99
2019-04-28T06:33:47.678Z,99.99
2019-04-28T06:34:47.656Z,99.99
2019-04-28T06:35:47.634Z,99.99
2019-04-28T06:36:47.622Z,99.99
2019-04-28T06:37:47.594Z,99.99
2019-04-28T06:38:47.577Z,99.99
2019-04-28T06:39:47.560Z,99.99
2019-04-28T06:40:47.526Z,99.99
2019-04-28T06:41:47.506Z,99.99
2019-04-28T06:42:47.491Z,99.99
2019-04-28T06:43:47.471Z,99.99
2019-04-28T06:44:47.446Z,99.99
2019-04-28T06:45:47.423Z,99.99
2019-04-28T06:46:47.404Z,99.99
2019-04-28T06:47:47.384Z,99.99
2019-04-28T06:48:47.368Z,99.99
2019-04-28T06:49:47.344Z,99.99
2019-04-28T06:50:47.318Z,99.99
2019-04-28T06:51:47.335Z,99.99
2019-04-28T06:52:47.278Z,99.99
2019-04-28T06:53:47.268Z,99.99
2019-04-28T06:54:47.235Z,99.99
2019-04-28T06:55:47.216Z,99.99
2019-04-28T06:56:47.198Z,99.99
2019-04-28T06:57:47.186Z,99.99
2019-04-28T06:58:58.460Z,99.99
2019-04-28T06:59:47.141Z,99.99
2019-04-28T07:00:47.111Z,99.99
2019-04-28T07:01:47.091Z,99.99
2019-04-28T07:02:47.069Z,99.99
2019-04-28T07:03:47.051Z,99.99
2019-04-28T07:04:47.037Z,99.99
2019-04-28T07:05:47.011Z,99.99
2019-04-28T07:06:46.990Z,99.99
2019-04-28T07:07:47.001Z,99.99
2019-04-28T07:08:46.948Z,99.99
2019-04-28T07:09:46.931Z,99.99
2019-04-28T07:10:46.910Z,99.99
2019-04-28T07:11:46.888Z,99.99
2019-04-28T07:12:46.870Z,99.99
2019-04-28T07:13:46.857Z,99.99
2019-04-28T07:14:46.829Z,99.99
2019-04-28T07:15:46.990Z,99.99
2019-04-28T07:16:46.788Z,99.99
2019-04-28T07:17:46.768Z,99.99
2019-04-28T07:18:46.761Z,99.99
2019-04-28T07:19:46.731Z,99.99
2019-04-28T07:21:40.394Z,98.80
2019-04-28T07:22:40.381Z,97.85
2019-04-28T07:23:40.364Z,98.94
2019-04-28T07:24:40.337Z,99.99
2019-04-28T07:25:40.314Z,99.99
2019-04-28T07:26:40.297Z,99.99
2019-04-28T07:27:40.276Z,99.99
2019-04-28T07:29:13.469Z,99.99
2019-04-28T07:29:40.241Z,99.99
2019-04-28T07:30:40.217Z,99.99
2019-04-28T07:31:40.199Z,99.99
2019-04-28T07:33:13.397Z,99.99
2019-04-28T07:34:13.369Z,99.99
2019-04-28T07:34:40.148Z,99.99
2019-04-28T07:35:40.122Z,99.99
2019-04-28T07:38:25.751Z,99.99
2019-04-28T07:39:25.732Z,99.85
2019-04-28T07:40:25.709Z,98.99
2019-04-28T07:41:25.697Z,98.94
2019-04-28T07:42:25.673Z,98.99
2019-04-28T07:43:25.653Z,99.56
2019-04-28T07:44:25.646Z,98.80
2019-04-28T07:45:58.825Z,97.85
2019-04-28T07:46:25.611Z,97.46
2019-04-28T07:47:58.785Z,96.98
2019-04-28T07:48:58.776Z,97.66
2019-04-28T07:49:58.767Z,99.08
2019-04-28T07:50:25.628Z,99.75
2019-04-28T07:53:11.156Z,97.56
2019-04-28T09:44:26.588Z,99.99
2019-04-28T09:44:53.384Z,99.99
2019-04-28T09:45:53.366Z,99.99
2019-04-28T09:46:53.318Z,99.99
2019-04-28T09:47:53.302Z,99.99
2019-04-28T09:48:53.279Z,99.99
2019-04-28T09:49:53.266Z,99.99
2019-04-28T09:50:54.666Z,99.99
2019-04-28T09:51:53.219Z,99.99
2019-04-28T09:52:53.200Z,99.99
2019-04-28T09:53:53.188Z,99.99
2019-04-28T09:54:53.169Z,99.99
2019-04-28T09:55:53.150Z,99.99
2019-04-28T09:56:56.898Z,99.99
2019-04-28T09:57:54.832Z,97.99
2019-04-28T09:58:53.082Z,95.84
2019-04-28T09:59:53.063Z,95.75
2019-04-28T10:00:53.043Z,94.89
2019-04-28T10:01:53.027Z,91.11
2019-04-28T10:02:53.014Z,90.06
2019-04-28T10:03:53.049Z,89.97
2019-04-28T10:04:52.969Z,92.36
2019-04-28T10:05:52.951Z,91.50
2019-04-28T10:06:52.932Z,90.92
2019-04-28T10:07:52.919Z,89.73
2019-04-28T10:08:52.902Z,90.30
2019-04-28T10:09:52.900Z,87.43
2019-04-28T10:10:52.867Z,87.43
2019-04-28T10:11:52.844Z,87.43
2019-04-28T10:12:52.827Z,87.43
2019-04-28T10:13:52.809Z,88.96
2019-04-28T10:14:52.796Z,88.87
2019-04-28T10:15:52.776Z,90.30
2019-04-28T10:16:52.760Z,88.96
2019-04-28T10:17:54.160Z,86.96
2019-04-28T10:18:52.720Z,87.24
2019-04-28T10:19:52.724Z,86.90
2019-04-28T10:20:52.692Z,84.13
2019-04-28T10:21:52.686Z,85.57
2019-04-28T10:22:52.670Z,85.52
2019-04-28T10:23:52.635Z,85.71
2019-04-28T10:24:52.618Z,86.86
2019-04-28T10:25:52.603Z,87.62
2019-04-28T10:26:52.587Z,88.96
2019-04-28T10:27:52.577Z,89.63
2019-04-28T10:28:52.548Z,87.24
2019-04-28T10:29:55.151Z,86.57
2019-04-28T10:32:07.038Z,87.34
2019-04-28T10:35:54.758Z,85.24
2019-04-28T10:37:25.466Z,84.47
2019-04-28T10:37:52.846Z,85.24
2019-04-28T10:38:52.030Z,85.85
2019-04-28T10:39:52.010Z,87.00
2019-04-28T10:42:06.187Z,85.09
2019-04-28T10:45:43.262Z,82.17
2019-04-28T10:47:16.455Z,81.30
2019-04-28T10:47:43.224Z,81.02
2019-04-28T10:48:43.259Z,79.87
2019-04-28T10:49:43.201Z,79.72
2019-04-28T10:52:59.649Z,75.77
2019-04-28T10:54:31.620Z,75.68
2019-04-28T10:54:58.409Z,76.69
2019-04-28T10:56:31.601Z,77.51
2019-04-28T10:58:43.524Z,83.22
2019-04-28T11:00:16.715Z,78.43
2019-04-28T11:00:43.489Z,77.78
2019-04-28T11:03:28.628Z,84.10
2019-04-28T11:05:08.244Z,85.44
2019-04-28T11:05:28.600Z,83.72
2019-04-28T11:08:13.786Z,83.67
2019-04-28T11:10:48.920Z,81.43
2019-04-28T11:12:22.114Z,83.01
2019-04-28T11:12:48.885Z,85.11
2019-04-28T11:49:23.004Z,61.17
2019-04-28T11:49:49.775Z,61.20
2019-04-28T11:50:49.772Z,60.21
2019-04-28T11:54:08.065Z,61.08
2019-04-28T11:55:08.074Z,60.40
2019-04-28T11:57:53.093Z,59.73
2019-04-28T11:58:53.082Z,60.31
2019-04-28T12:01:38.127Z,63.99
2019-04-28T12:02:38.108Z,64.66
2019-04-28T13:14:58.043Z,99.04
2019-04-28T14:05:45.301Z,90.34
2019-04-28T14:05:52.830Z,88.15
2019-04-28T14:06:52.828Z,86.90
2019-04-28T14:07:52.813Z,87.90
2019-04-28T14:08:52.783Z,88.15
2019-04-28T14:09:52.777Z,89.24
2019-04-28T14:10:52.753Z,88.09
2019-04-28T14:11:52.734Z,86.94
2019-04-28T14:12:52.721Z,87.23
2019-04-28T14:13:52.702Z,89.15
2019-04-28T14:14:52.704Z,89.91
2019-04-28T14:15:52.659Z,90.39
2019-04-28T14:16:52.654Z,91.63
2019-04-28T14:17:52.678Z,90.67
2019-04-28T14:18:52.657Z,88.76
2019-04-28T14:19:52.614Z,89.62
2019-04-28T14:20:52.588Z,89.34
2019-04-28T14:21:52.613Z,88.38
2019-04-28T14:22:52.541Z,85.89
2019-04-28T14:23:52.533Z,87.48
2019-04-28T14:24:52.568Z,87.57
2019-04-28T14:25:52.559Z,87.38
2019-04-28T14:26:52.475Z,87.86
2019-04-28T14:27:52.458Z,87.86
2019-04-28T14:28:52.450Z,87.57
2019-04-28T14:29:52.421Z,85.47
2019-04-28T14:30:52.408Z,86.52
2019-04-28T14:31:52.461Z,87.57
2019-04-28T14:32:52.386Z,89.39
2019-04-28T14:33:52.371Z,90.34
2019-04-28T14:34:52.353Z,89.10
2019-04-28T14:35:52.326Z,89.58
2019-04-28T14:36:52.310Z,88.53
2019-04-28T14:37:52.295Z,86.33
2019-04-28T14:38:52.285Z,86.33
2019-04-28T14:39:52.286Z,86.52
2019-04-28T14:40:52.323Z,85.75
2019-04-28T14:41:52.222Z,84.13
2019-04-28T14:42:52.203Z,85.28
2019-04-28T14:43:52.184Z,86.71
2019-04-28T14:44:52.160Z,86.04
2019-04-28T14:45:52.169Z,85.51
2019-04-28T14:46:52.164Z,87.09
2019-04-28T14:47:52.130Z,86.61
2019-04-28T14:48:52.106Z,86.04
2019-04-28T14:49:52.139Z,85.66
2019-04-28T14:50:52.066Z,86.52
2019-04-28T14:51:52.049Z,85.28
2019-04-28T14:52:52.023Z,83.27
2019-04-28T14:53:52.006Z,82.26
2019-04-28T14:54:51.990Z,83.60
2019-04-28T14:55:51.992Z,83.50
2019-04-28T14:56:51.959Z,82.26
2019-04-28T14:57:52.021Z,81.21
2019-04-28T14:58:51.927Z,82.17
2019-04-28T14:59:51.952Z,83.12
2019-04-28T15:00:51.898Z,83.22
2019-04-28T15:01:51.879Z,82.93
2019-04-28T15:02:51.911Z,83.60
2019-04-28T15:03:51.834Z,84.17
2019-04-28T15:04:51.817Z,86.18
2019-04-28T15:05:51.810Z,83.50
2019-04-28T15:06:55.775Z,83.94
2019-04-28T15:07:51.802Z,85.47
2019-04-28T15:08:51.844Z,85.38
2019-04-28T15:09:51.811Z,85.57
2019-04-28T15:10:51.727Z,86.47
2019-04-28T15:11:51.714Z,85.57
2019-04-28T15:12:51.686Z,86.37
2019-04-28T15:13:51.679Z,86.47
2019-04-28T15:14:51.700Z,83.94
2019-04-28T15:15:51.647Z,84.89
2019-04-28T15:16:51.663Z,86.28
2019-04-28T15:17:51.666Z,85.66
2019-04-28T15:18:51.578Z,86.90
2019-04-28T15:19:51.575Z,87.19
2019-04-28T15:20:51.552Z,86.08
2019-04-28T15:21:54.470Z,85.75
2019-04-28T15:22:51.512Z,86.76
2019-04-28T15:23:51.502Z,87.04
2019-04-28T15:24:51.473Z,86.94
2019-04-28T15:25:51.453Z,85.51
2019-04-28T15:26:51.441Z,84.46
2019-04-28T15:27:51.419Z,84.46
2019-04-28T15:28:51.405Z,84.23
2019-04-28T15:29:51.386Z,85.18
2019-04-28T15:30:51.372Z,84.89
2019-04-28T15:31:51.351Z,85.75
2019-04-28T15:32:51.337Z,85.66
2019-04-28T15:33:51.323Z,85.90
2019-04-28T15:34:51.300Z,85.24
2019-04-28T15:35:51.277Z,86.38
2019-04-28T15:36:51.268Z,87.34
2019-04-28T15:37:51.252Z,86.29
2019-04-28T15:38:51.230Z,87.24
2019-04-28T15:39:51.207Z,85.24
2019-04-28T15:40:51.198Z,84.09
2019-04-28T15:41:51.174Z,84.38
2019-04-28T15:42:51.154Z,83.90
2019-04-28T15:43:51.148Z,85.24
2019-04-28T15:44:51.128Z,85.71
2019-04-28T15:45:51.104Z,84.91
2019-04-28T15:46:51.084Z,84.56
2019-04-28T15:47:51.072Z,85.90
2019-04-28T15:48:51.067Z,86.29
2019-04-28T15:49:51.033Z,85.42
2019-04-28T15:50:51.012Z,85.81
2019-04-28T15:51:51.000Z,86.00
2019-04-28T15:52:51.006Z,87.05
2019-04-28T15:53:50.961Z,87.62
2019-04-28T15:54:50.954Z,85.67
2019-04-28T15:55:50.940Z,85.48
2019-04-28T15:56:50.906Z,85.58
2019-04-28T15:57:50.899Z,86.15
2019-04-28T15:58:50.876Z,85.00
2019-04-28T15:59:50.846Z,85.19
2019-04-28T16:00:50.849Z,86.43
2019-04-28T16:01:50.826Z,86.63
2019-04-28T16:02:50.793Z,86.05
2019-04-28T16:03:50.776Z,87.39
2019-04-28T16:04:50.771Z,87.39
2019-04-28T16:05:50.746Z,87.96
2019-04-28T16:06:50.742Z,89.11
2019-04-28T16:07:50.699Z,89.39
2019-04-28T16:08:50.702Z,90.25
2019-04-28T16:09:50.687Z,90.83
2019-04-28T16:10:50.644Z,91.16
2019-04-28T16:11:50.633Z,91.64
2019-04-28T16:12:50.624Z,92.97
2019-04-28T16:13:50.598Z,93.46
2019-04-28T16:14:50.577Z,92.83
2019-04-28T16:15:50.548Z,92.64
2019-04-28T16:16:50.531Z,92.55
2019-04-28T16:17:50.528Z,91.78
2019-04-28T16:18:50.500Z,91.11
2019-04-28T16:19:50.488Z,91.88
2019-04-28T16:20:50.458Z,92.26
2019-04-28T16:21:50.763Z,91.02
2019-04-28T16:22:50.827Z,89.30
2019-04-28T16:23:50.397Z,88.30
2019-04-28T16:24:50.377Z,88.20
2019-04-28T16:25:50.372Z,88.87
2019-04-28T16:26:50.337Z,87.73
2019-04-28T16:27:50.340Z,88.40
2019-04-28T16:28:50.299Z,88.59
2019-04-28T16:29:50.285Z,89.35
2019-04-28T16:30:50.263Z,90.02
2019-04-28T16:31:50.254Z,90.11
2019-04-28T16:32:50.225Z,88.40
2019-04-28T16:33:50.254Z,89.06
2019-04-28T16:34:50.188Z,89.35
2019-04-28T16:35:50.186Z,89.06
2019-04-28T16:36:50.149Z,88.49
2019-04-28T16:37:50.142Z,88.78
2019-04-28T16:38:50.166Z,88.68
2019-04-28T16:39:50.089Z,89.11
2019-04-28T16:40:50.066Z,88.68
2019-04-28T16:41:50.052Z,87.35
2019-04-28T16:42:50.038Z,86.49
2019-04-28T16:44:54.068Z,87.54
2019-04-28T16:45:54.039Z,87.25
2019-04-28T16:46:54.024Z,86.96
2019-04-28T16:47:54.003Z,86.96
2019-04-28T16:48:53.989Z,87.06
2019-04-28T16:49:53.981Z,86.20
2019-04-28T16:50:53.951Z,86.96
2019-04-28T16:51:53.923Z,87.15
2019-04-28T16:52:53.910Z,87.54
2019-04-28T16:53:53.893Z,88.30
2019-04-28T16:54:53.868Z,86.30
2019-04-28T16:55:53.855Z,86.20
2019-04-28T16:56:53.844Z,84.77
2019-04-28T16:57:53.809Z,85.82
2019-04-28T16:58:53.811Z,85.05
2019-04-28T16:59:53.772Z,83.72
2019-04-28T17:00:53.746Z,84.05
2019-04-28T17:01:53.748Z,83.09
2019-04-28T17:02:53.762Z,83.38
2019-04-28T17:03:53.687Z,82.81
2019-04-28T17:04:53.688Z,83.38
2019-04-28T17:05:53.661Z,83.91
2019-04-28T17:06:53.644Z,84.58
2019-04-28T17:07:53.629Z,85.44
2019-04-28T17:08:56.821Z,86.01
2019-04-28T17:09:53.574Z,87.35
2019-04-28T17:10:53.545Z,85.53
2019-04-28T17:11:53.528Z,84.86
2019-04-28T17:12:53.510Z,83.34
2019-04-28T17:13:53.501Z,83.53
2019-04-28T17:14:53.466Z,84.77
2019-04-28T17:15:53.469Z,85.44
2019-04-28T17:16:53.425Z,86.68
2019-04-28T17:17:53.413Z,85.53
2019-04-28T17:18:53.386Z,84.10
2019-04-28T17:19:53.367Z,84.48
2019-04-28T17:20:55.053Z,83.34
2019-04-28T17:21:53.333Z,83.24
2019-04-28T17:22:53.311Z,82.95
2019-04-28T17:23:53.287Z,83.72
2019-04-28T17:24:53.284Z,83.05
2019-04-28T17:25:53.250Z,83.14
2019-04-28T17:26:53.234Z,83.53
2019-04-28T17:27:53.207Z,83.53
2019-04-28T17:28:53.184Z,83.91
2019-04-28T17:29:53.182Z,83.43
2019-04-28T17:30:53.144Z,82.86
2019-04-28T17:31:53.132Z,82.95
2019-04-28T17:32:53.102Z,83.24
2019-04-28T17:33:53.088Z,83.24
2019-04-28T17:34:53.075Z,83.24
2019-04-28T17:35:53.044Z,81.90
2019-04-28T17:36:53.033Z,82.09
2019-04-28T17:38:06.006Z,82.76
2019-04-28T17:38:56.626Z,83.81
2019-04-28T17:39:52.964Z,85.25
2019-04-28T17:40:52.957Z,85.15
2019-04-28T17:41:52.929Z,82.76
2019-04-28T17:42:52.903Z,82.00
2019-04-28T17:43:52.886Z,82.19
2019-04-28T17:44:52.920Z,82.09
2019-04-28T17:45:52.863Z,82.09
2019-04-28T17:46:52.823Z,82.09
2019-04-28T17:47:52.807Z,82.09
2019-04-28T17:48:52.793Z,82.29
2019-04-28T17:49:52.782Z,82.38
2019-04-28T17:50:52.759Z,83.24
2019-04-28T17:51:52.731Z,83.62
2019-04-28T17:52:52.707Z,83.53
2019-04-28T17:53:52.677Z,83.91
2019-04-28T17:54:52.666Z,85.91
2019-04-28T17:55:52.643Z,87.15
2019-04-28T17:56:52.618Z,86.49
2019-04-28T17:57:52.621Z,84.96
2019-04-28T17:58:52.587Z,86.30
2019-04-28T17:59:52.639Z,89.16
2019-04-28T18:00:52.591Z,87.92
2019-04-28T18:01:52.526Z,89.54
2019-04-28T18:02:52.510Z,89.45
2019-04-28T18:03:52.486Z,87.92
2019-04-28T18:04:52.468Z,89.25
2019-04-28T18:05:52.489Z,90.31
2019-04-28T18:06:52.424Z,90.78
2019-04-28T18:07:52.408Z,89.83
2019-04-28T18:08:52.384Z,88.11
2019-04-28T18:09:52.354Z,88.20
2019-04-28T18:10:52.334Z,87.73
2019-04-28T18:11:52.335Z,88.97
2019-04-28T18:13:00.261Z,88.68
2019-04-28T18:13:52.385Z,89.92
2019-04-28T18:14:52.256Z,89.16
2019-04-28T18:15:52.247Z,87.25
2019-04-28T18:16:52.228Z,87.44
2019-04-28T18:17:52.213Z,89.31
2019-04-28T18:18:52.184Z,88.54
2019-04-28T18:19:52.173Z,89.78
2019-04-28T18:20:52.235Z,89.88
2019-04-28T18:21:52.116Z,90.55
2019-04-28T18:22:52.088Z,91.21
2019-04-28T18:23:52.071Z,92.17
2019-04-28T18:24:52.048Z,92.36
2019-04-28T18:25:52.035Z,93.12
2019-04-28T18:26:52.008Z,92.93
2019-04-28T18:27:52.008Z,92.98
2019-04-28T18:28:51.982Z,93.55
2019-04-28T18:29:51.959Z,93.36
2019-04-28T18:30:51.928Z,93.36
2019-04-28T18:31:51.914Z,94.03
2019-04-28T18:32:51.898Z,94.22
2019-04-28T18:33:51.869Z,93.36
2019-04-28T18:34:51.859Z,93.93
2019-04-28T18:35:51.840Z,94.32
2019-04-28T18:37:35.738Z,94.79
2019-04-28T18:38:35.710Z,94.03
2019-04-28T18:39:35.690Z,94.60
2019-04-28T18:40:35.667Z,94.98
2019-04-28T18:41:35.651Z,94.98
2019-04-28T18:42:35.726Z,95.08
2019-04-28T18:44:08.824Z,95.65
2019-04-28T18:44:35.581Z,95.75
2019-04-28T18:46:08.775Z,95.65
2019-04-28T18:47:08.802Z,96.13
2019-04-28T18:48:08.733Z,96.70
2019-04-28T18:48:36.280Z,96.61
2019-04-28T18:50:08.685Z,96.41
2019-04-28T18:50:35.464Z,97.66
2019-04-28T18:51:35.445Z,97.89
2019-04-28T18:52:35.443Z,97.85
2019-04-28T18:53:35.394Z,98.36
2019-04-28T18:54:35.380Z,99.27
2019-04-28T18:55:35.367Z,99.08
2019-04-28T18:58:55.456Z,99.04
2019-04-28T18:59:24.312Z,99.41
2019-04-28T19:00:55.417Z,99.60
2019-04-28T19:01:22.193Z,99.80
2019-04-28T19:02:22.169Z,99.99
2019-04-28T19:03:22.196Z,99.99
2019-04-28T19:04:22.145Z,99.99
2019-04-28T19:05:22.103Z,99.99
2019-04-28T19:07:04.866Z,99.99
2019-04-28T19:07:22.068Z,99.99
2019-04-28T19:08:22.044Z,99.99
2019-04-28T19:09:22.021Z,99.99
2019-04-28T19:10:22.017Z,99.99
2019-04-28T19:11:22.052Z,99.99
2019-04-28T19:12:21.955Z,99.99
2019-04-28T19:13:21.934Z,99.99
2019-04-28T19:14:21.928Z,99.99
2019-04-28T19:15:21.893Z,99.99
2019-04-28T19:16:21.869Z,99.99
2019-04-28T20:41:40.521Z,99.99
2019-04-28T20:43:07.416Z,99.99
2019-04-28T20:44:07.455Z,99.99
2019-04-28T20:44:34.164Z,99.99
2019-04-28T20:45:34.151Z,99.99
2019-04-28T20:48:19.326Z,99.99
2019-04-28T21:03:52.875Z,99.99
2019-04-28T21:04:52.872Z,99.99
2019-04-28T21:05:52.824Z,99.99
2019-04-28T21:06:19.603Z,99.99
2019-04-28T21:07:25.833Z,99.99
2019-04-28T21:08:25.821Z,99.99
2019-04-28T21:09:19.524Z,99.99
2019-04-28T21:10:19.511Z,99.99
2019-04-28T21:11:19.482Z,99.99
2019-04-28T21:12:19.459Z,99.99
2019-04-28T21:13:19.449Z,99.99
2019-04-28T21:14:20.787Z,99.99
2019-04-28T21:15:19.399Z,99.99
2019-04-28T21:16:19.371Z,99.99
2019-04-28T21:17:19.347Z,99.99
2019-04-28T21:18:19.327Z,99.99
2019-04-28T21:19:19.304Z,99.99
2019-04-28T21:20:19.343Z,99.99
2019-04-28T21:21:19.266Z,99.99
2019-04-28T21:22:19.237Z,99.99
2019-04-28T21:23:19.224Z,99.99
2019-04-28T21:24:19.197Z,99.99
2019-04-28T21:25:19.184Z,99.99
2019-04-28T21:26:19.153Z,99.99
2019-04-28T21:27:19.129Z,99.99
2019-04-28T21:28:19.110Z,99.99
2019-04-28T21:29:19.085Z,99.99
2019-04-28T21:30:19.074Z,99.99
2019-04-28T21:31:19.062Z,99.99
2019-04-28T21:32:19.020Z,99.99
2019-04-28T21:33:19.013Z,99.99
2019-04-28T21:34:18.989Z,99.99
2019-04-28T21:35:18.954Z,99.99
2019-04-28T21:36:18.943Z,99.99
2019-04-28T21:37:18.908Z,99.99
2019-04-28T21:38:18.890Z,99.99
2019-04-28T21:39:18.868Z,99.99
2019-04-28T21:40:18.843Z,99.99
2019-04-28T21:41:18.818Z,99.99
2019-04-28T21:42:18.795Z,99.99
2019-04-28T21:43:18.773Z,99.99
2019-04-28T21:44:18.762Z,99.99
2019-04-28T21:45:18.747Z,99.99
2019-04-28T21:46:18.713Z,99.99
2019-04-28T21:47:18.694Z,99.99